Time;durP1;ratioP1;P1;durP2;ratioP2;P2;SDS_P1;SDS_P2;PMS_P1;PMS_P2;Temp;Humidity;BMP_temperature;BMP_pressure;BME280_temperature;BME280_humidity;BME280_pressure;Samples;Min_cycle;Max_cycle;Signal;HPM_P1;HPM_P2
2021/10/22 00:02:00;;;;;;;17.38;3.60;;;8.80;99.90;;;6.43;100.00;100429.22;5033535;28;20091;-85
2021/10/22 00:04:27;;;;;;;18.25;4.32;;;8.80;99.90;;;6.42;100.00;100424.00;5051434;28;20041;-85
2021/10/22 00:06:57;;;;;;;23.95;4.28;;;8.80;99.90;;;6.44;100.00;100427.38;5033603;28;20103;-85
2021/10/22 00:09:25;;;;;;;19.63;4.13;;;8.80;99.90;;;6.41;100.00;100423.13;5051058;28;20068;-85
2021/10/22 00:11:52;;;;;;;16.98;4.07;;;8.80;99.90;;;6.33;100.00;100431.19;5051508;28;20428;-85
2021/10/22 00:14:19;;;;;;;22.45;4.45;;;8.80;99.90;;;6.31;100.00;100427.81;5051332;28;20141;-85
2021/10/22 00:16:48;;;;;;;17.67;4.90;;;8.80;99.90;;;6.26;100.00;100420.19;5033683;28;20053;-85
2021/10/22 00:19:16;;;;;;;18.90;4.40;;;8.80;99.90;;;6.26;100.00;100431.00;5051355;28;20056;-85
2021/10/22 00:21:44;;;;;;;16.90;4.25;;;8.60;99.90;;;6.32;100.00;100429.50;5051446;28;20152;-86
2021/10/22 00:24:11;;;;;;;19.75;4.68;;;8.80;99.90;;;6.39;100.00;100422.44;5051403;28;20863;-85
2021/10/22 00:26:38;;;;;;;24.00;4.93;;;8.80;99.90;;;6.40;100.00;100426.84;5051565;28;20049;-85
2021/10/22 00:29:06;;;;;;;13.88;3.90;;;8.80;99.90;;;6.45;100.00;100419.13;5033108;28;20049;-86
2021/10/22 00:31:33;;;;;;;22.70;4.35;;;8.80;99.90;;;6.52;100.00;100413.91;5051312;28;20112;-85
2021/10/22 00:34:02;;;;;;;18.30;3.90;;;8.80;99.90;;;6.52;100.00;100413.91;5051182;28;20120;-86
2021/10/22 00:36:29;;;;;;;17.40;3.75;;;8.80;99.90;;;6.49;100.00;100427.72;5051301;28;20069;-86
2021/10/22 00:38:56;;;;;;;26.80;4.32;;;8.80;99.90;;;6.54;100.00;100422.69;5050884;28;20128;-85
2021/10/22 00:41:25;;;;;;;16.90;3.42;;;8.80;99.90;;;6.53;100.00;100422.84;5050969;28;20143;-85
2021/10/22 00:43:53;;;;;;;17.15;3.55;;;8.90;99.90;;;6.49;100.00;100414.22;5051116;28;20497;-85
2021/10/22 00:46:24;;;;;;;18.67;3.83;;;8.80;99.90;;;6.53;100.00;100415.63;5050501;28;20122;-85
2021/10/22 00:48:52;;;;;;;26.40;3.83;;;8.80;99.90;;;6.51;100.00;100423.03;5050854;28;20049;-85
2021/10/22 00:51:21;;;;;;;20.17;3.80;;;8.90;99.90;;;6.49;100.00;100416.06;5050631;28;20063;-86
2021/10/22 00:53:48;;;;;;;18.00;3.53;;;8.80;99.90;;;6.53;100.00;100414.75;5053399;28;20540;-85
2021/10/22 00:56:17;;;;;;;19.73;3.75;;;8.90;99.90;;;6.54;100.00;100416.44;5050842;28;20119;-85
2021/10/22 00:58:46;;;;;;;18.98;3.58;;;8.90;99.90;;;6.60;100.00;100413.09;5032449;28;20059;-86
2021/10/22 01:01:13;;;;;;;18.35;3.38;;;8.90;99.90;;;6.61;100.00;100412.09;5050838;28;20043;-86
2021/10/22 01:03:40;;;;;;;21.08;3.45;;;8.90;99.90;;;6.66;100.00;100415.16;5050619;28;20076;-85
2021/10/22 01:06:09;;;;;;;16.73;3.03;;;8.90;99.90;;;6.67;100.00;100424.13;5050709;28;20136;-85
2021/10/22 01:08:37;;;;;;;15.60;3.05;;;8.90;99.90;;;6.68;100.00;100423.09;5049070;28;20063;-85
2021/10/22 01:11:05;;;;;;;16.80;3.70;;;8.90;99.90;;;6.67;100.00;100424.97;5050485;28;20063;-86
2021/10/22 01:13:32;;;;;;;11.75;3.00;;;8.90;99.90;;;6.69;100.00;100427.50;5050318;28;20148;-85
2021/10/22 01:16:01;;;;;;;18.08;3.83;;;8.90;99.90;;;6.70;100.00;100426.50;5050510;28;20114;-86
2021/10/22 01:18:29;;;;;;;14.55;3.08;;;9.00;99.90;;;6.62;100.00;100430.84;5049972;28;20493;-85
2021/10/22 01:21:01;;;;;;;15.80;3.22;;;9.00;99.90;;;6.59;100.00;100428.47;5050421;28;20055;-86
2021/10/22 01:23:28;;;;;;;14.90;2.75;;;8.90;99.90;;;6.59;100.00;100436.59;5032297;28;20045;-85
2021/10/22 01:25:55;;;;;;;14.10;2.88;;;8.90;99.90;;;6.58;100.00;100429.47;5050131;28;20037;-85
2021/10/22 01:28:23;;;;;;;13.32;2.20;;;8.90;99.90;;;6.59;100.00;100425.78;5049938;28;20044;-85
2021/10/22 01:30:51;;;;;;;13.35;2.35;;;8.90;99.90;;;6.61;100.00;100433.72;5050043;28;20073;-85
2021/10/22 01:33:19;;;;;;;14.15;2.72;;;8.90;99.90;;;6.65;100.00;100427.81;5049991;28;20116;-85
2021/10/22 01:35:47;;;;;;;11.00;2.70;;;9.00;99.90;;;6.62;100.00;100420.03;5050147;28;20132;-86
2021/10/22 01:38:20;;;;;;;;;;;9.00;99.90;;;6.56;100.00;100417.97;5050370;28;20044;-85
2021/10/22 01:40:53;;;;;;;14.20;2.83;;;9.00;99.90;;;6.48;100.00;100422.50;5047016;28;20373;-85
2021/10/22 01:43:22;;;;;;;10.48;2.47;;;8.90;99.90;;;6.40;100.00;100420.59;5049767;28;20041;-85
2021/10/22 01:45:50;;;;;;;13.13;2.60;;;8.90;99.90;;;6.30;100.00;100419.84;5031911;28;20750;-85
2021/10/22 01:48:17;;;;;;;17.30;2.72;;;8.90;99.90;;;6.31;100.00;100422.41;5031492;28;20064;-85
2021/10/22 01:50:45;;;;;;;15.50;3.10;;;8.80;99.90;;;6.33;100.00;100414.13;5049782;28;20037;-86
2021/10/22 01:53:15;;;;;;;17.17;2.45;;;8.90;99.90;;;6.24;100.00;100416.78;5049573;28;20578;-86
2021/10/22 01:55:44;;;;;;;12.15;2.90;;;8.90;99.90;;;6.18;100.00;100420.09;5049546;28;20052;-85
2021/10/22 01:58:12;;;;;;;22.90;3.22;;;8.80;99.90;;;6.12;100.00;100414.50;5030796;28;20077;-85
2021/10/22 02:00:40;;;;;;;12.80;2.70;;;8.80;99.90;;;6.03;100.00;100410.88;5049623;28;20047;-86
2021/10/22 02:03:07;;;;;;;15.13;2.53;;;8.70;99.90;;;5.97;100.00;100406.13;5049317;28;20043;-85
2021/10/22 02:05:35;;;;;;;11.10;2.30;;;8.70;99.90;;;5.96;100.00;100401.72;5049466;28;20055;-86
2021/10/22 02:08:03;;;;;;;16.65;3.22;;;8.60;99.90;;;5.95;100.00;100397.28;5049143;28;20072;-86
2021/10/22 02:10:31;;;;;;;17.13;2.58;;;8.60;99.90;;;5.94;100.00;100398.28;5049496;28;20084;-85
2021/10/22 02:13:00;;;;;;;14.68;2.70;;;8.60;99.90;;;5.99;100.00;100396.00;5049230;28;20036;-85
2021/10/22 02:15:27;;;;;;;14.57;3.15;;;8.60;99.90;;;5.91;100.00;100396.75;5031391;28;20076;-86
2021/10/22 02:17:55;;;;;;;13.75;2.85;;;8.50;99.90;;;5.87;100.00;100396.22;5048906;28;20045;-86
2021/10/22 02:20:23;;;;;;;13.75;2.50;;;8.50;99.90;;;5.82;100.00;100395.00;5049232;28;20044;-85
2021/10/22 02:22:50;;;;;;;19.58;3.40;;;8.50;99.90;;;5.82;100.00;100400.41;5031073;28;20119;-86
2021/10/22 02:25:18;;;;;;;10.30;3.03;;;8.50;99.90;;;5.80;100.00;100397.00;5049319;28;20044;-86
2021/10/22 02:27:45;;;;;;;19.35;2.92;;;8.40;99.90;;;5.83;100.00;100392.16;5048850;28;20051;-85
2021/10/22 02:30:14;;;;;;;13.43;2.83;;;8.40;99.90;;;5.76;100.00;100391.06;5049039;28;20047;-86
2021/10/22 02:32:41;;;;;;;21.27;3.72;;;8.40;99.90;;;5.80;100.00;100397.00;5048932;28;20047;-85
2021/10/22 02:35:09;;;;;;;20.80;3.35;;;8.40;99.90;;;5.86;100.00;100413.44;5030891;28;20079;-85
2021/10/22 02:37:37;;;;;;;21.58;3.30;;;8.40;99.90;;;5.82;100.00;100406.63;5048498;28;20497;-86
2021/10/22 02:40:06;;;;;;;20.40;3.38;;;8.40;99.90;;;5.80;100.00;100410.50;5048789;28;20111;-85
2021/10/22 02:42:35;;;;;;;19.77;3.60;;;8.40;99.90;;;5.86;100.00;100412.56;5030847;28;20037;-85
2021/10/22 02:45:02;;;;;;;17.73;3.70;;;8.40;99.90;;;5.93;100.00;100402.00;5048612;28;20055;-86
2021/10/22 02:47:31;;;;;;;17.10;4.15;;;8.40;99.90;;;5.99;100.00;100401.41;5030471;28;20475;-86
2021/10/22 02:49:58;;;;;;;21.27;3.80;;;8.40;99.90;;;6.01;100.00;100399.41;5048688;28;20048;-85
2021/10/22 02:52:25;;;;;;;17.17;3.95;;;8.40;99.90;;;5.90;100.00;100391.50;5048669;28;20076;-86
2021/10/22 02:54:53;;;;;;;18.30;3.72;;;8.40;99.90;;;5.88;100.00;100395.22;5030623;28;20057;-85
2021/10/22 02:57:20;;;;;;;15.80;3.97;;;8.40;99.90;;;5.83;100.00;100392.16;5030657;28;20599;-85
2021/10/22 02:59:47;;;;;;;13.50;3.25;;;8.30;99.90;;;5.84;100.00;100390.28;5030451;28;20107;-85
2021/10/22 03:02:16;;;;;;;23.13;3.95;;;8.30;99.90;;;5.75;100.00;100400.19;5050960;28;20044;-85
2021/10/22 03:04:46;;;;;;;21.10;4.15;;;8.30;99.90;;;5.76;100.00;100391.06;5048633;28;20041;-85
2021/10/22 03:07:13;;;;;;;13.23;3.50;;;8.30;99.90;;;5.74;100.00;100398.47;5030392;28;20131;-86
2021/10/22 03:09:40;;;;;;;16.60;3.70;;;8.30;99.90;;;5.77;100.00;100405.41;5048083;28;20053;-85
2021/10/22 03:12:08;;;;;;;14.73;3.30;;;8.30;99.90;;;5.83;100.00;100402.94;5048324;28;20053;-86
2021/10/22 03:14:35;;;;;;;16.90;3.40;;;8.20;99.90;;;5.76;100.00;100401.88;5048368;28;20663;-85
2021/10/22 03:17:02;;;;;;;12.18;3.33;;;8.30;99.90;;;5.74;100.00;100392.25;5048270;28;20143;-85
2021/10/22 03:19:30;;;;;;;21.08;3.53;;;8.20;99.90;;;5.69;100.00;100400.78;5047936;28;20175;-85
2021/10/22 03:21:59;;;;;;;17.70;3.95;;;8.20;99.90;;;5.69;100.00;100400.78;5048241;28;20447;-86
2021/10/22 03:24:27;;;;;;;17.13;3.50;;;8.20;99.90;;;5.73;100.00;100396.81;5048661;28;20045;-85
2021/10/22 03:26:54;;;;;;;17.10;3.05;;;8.20;99.90;;;5.68;100.00;100399.09;5048553;28;20497;-85
2021/10/22 03:29:21;;;;;;;18.88;3.50;;;8.20;99.90;;;5.67;100.00;100392.88;5048096;28;20463;-86
2021/10/22 03:31:49;;;;;;;14.07;3.55;;;8.20;99.90;;;5.66;100.00;100384.91;5043704;28;20107;-86
2021/10/22 03:34:16;;;;;;;19.70;4.40;;;8.20;99.90;;;5.61;100.00;100377.28;5010544;28;20049;-85
2021/10/22 03:36:43;;;;;;;16.77;3.75;;;8.20;99.90;;;5.61;100.00;100382.69;5028333;28;20099;-86
2021/10/22 03:39:12;;;;;;;14.80;3.45;;;8.20;99.90;;;5.63;100.00;100369.88;5028375;28;20049;-86
2021/10/22 03:41:39;;;;;;;18.50;3.10;;;8.10;99.90;;;5.65;100.00;100372.41;5028340;28;20045;-86
2021/10/22 03:44:07;;;;;;;13.68;3.20;;;8.10;99.90;;;5.55;100.00;100371.66;5028237;28;20129;-86
2021/10/22 03:46:34;;;;;;;13.55;3.25;;;8.10;99.80;;;5.57;100.00;100375.06;5028175;28;20065;-85
2021/10/22 03:49:01;;;;;;;17.63;4.50;;;8.10;99.80;;;5.57;100.00;100367.78;5028089;28;20904;-85
2021/10/22 03:51:28;;;;;;;22.63;3.90;;;8.10;99.50;;;5.52;100.00;100371.97;5028290;28;20621;-85
2021/10/22 03:53:56;;;;;;;18.67;3.55;;;8.10;99.70;;;5.52;100.00;100371.97;5028085;28;20193;-85
2021/10/22 03:56:25;;;;;;;11.02;3.03;;;8.10;99.50;;;5.46;100.00;100377.00;5028057;28;20052;-85
2021/10/22 03:58:52;;;;;;;26.83;3.67;;;8.10;99.40;;;5.48;100.00;100380.38;5028122;28;20498;-85
2021/10/22 04:01:20;;;;;;;18.63;3.83;;;8.00;99.40;;;5.44;100.00;100368.19;5028151;28;20472;-86
2021/10/22 04:03:50;;;;;;;21.88;4.43;;;8.10;99.50;;;5.49;100.00;100376.66;5028088;28;20518;-85
2021/10/22 04:06:17;;;;;;;16.45;3.25;;;8.00;99.50;;;5.50;100.00;100374.81;5028138;28;20069;-86
2021/10/22 04:08:45;;;;;;;13.68;3.33;;;8.00;99.40;;;5.43;100.00;100371.91;5027865;28;20045;-86
2021/10/22 04:11:12;;;;;;;13.70;3.28;;;8.00;99.10;;;5.41;100.00;100367.66;5027780;28;20073;-86
2021/10/22 04:13:40;;;;;;;16.27;3.00;;;8.00;99.20;;;5.37;100.00;100375.22;5028211;28;20072;-85
2021/10/22 04:16:08;;;;;;;17.75;3.13;;;8.00;99.10;;;5.32;100.00;100371.28;5027939;28;20038;-85
2021/10/22 04:18:35;;;;;;;15.05;3.00;;;8.10;99.20;;;5.30;100.00;100374.13;5027685;28;20053;-85
2021/10/22 04:21:02;;;;;;;12.82;2.88;;;7.90;99.10;;;5.33;100.00;100368.44;5030384;28;20128;-86
2021/10/22 04:23:30;;;;;;;14.45;2.78;;;7.90;99.20;;;5.33;100.00;100360.34;5013529;28;20051;-86
2021/10/22 04:25:57;;;;;;;17.48;3.20;;;7.90;99.10;;;5.32;100.00;100365.91;5031425;28;20124;-86
2021/10/22 04:28:25;;;;;;;19.40;3.35;;;7.90;99.00;;;5.29;100.00;100367.91;5031211;28;20080;-85
2021/10/22 04:30:53;;;;;;;11.20;3.00;;;7.90;99.00;;;5.28;100.00;100365.34;5031326;28;20069;-85
2021/10/22 04:33:21;;;;;;;20.33;2.83;;;7.90;98.80;;;5.27;100.00;100358.25;5031222;28;20084;-86
2021/10/22 04:35:48;;;;;;;19.75;3.40;;;7.80;98.90;;;5.25;100.00;100355.72;5031347;28;20065;-85
2021/10/22 04:41:01;;;;;;;14.88;2.90;;;7.90;98.70;;;5.21;100.00;100367.81;5000462;28;20056;-86
2021/10/22 04:43:28;;;;;;;15.88;2.80;;;7.80;98.70;;;5.21;100.00;100369.66;5031378;28;20044;-85
2021/10/22 04:45:57;;;;;;;19.27;3.03;;;7.80;98.60;;;5.22;100.00;100360.59;5031038;28;20119;-86
2021/10/22 04:48:25;;;;;;;12.10;2.95;;;7.80;98.60;;;5.25;100.00;100360.25;5031079;28;20053;-86
2021/10/22 04:50:52;;;;;;;16.05;3.10;;;7.80;98.60;;;5.19;100.00;100366.28;5030867;28;20092;-85
2021/10/22 04:53:25;;;;;;;14.85;3.50;;;7.80;98.50;;;5.20;100.00;100359.88;5031000;28;20120;-86
2021/10/22 04:55:54;;;;;;;16.48;3.30;;;7.80;98.40;;;5.22;100.00;100371.38;5066892;28;20048;-85
2021/10/22 04:58:21;;;;;;;16.05;2.88;;;7.80;98.60;;;5.19;100.00;100377.06;5070503;28;20037;-85
2021/10/22 05:00:49;;;;;;;16.17;2.83;;;7.70;98.50;;;5.25;100.00;100388.09;5052603;28;20076;-86
2021/10/22 05:03:17;;;;;;;17.90;2.70;;;7.80;98.60;;;5.38;100.00;100386.84;5070380;28;20465;-85
2021/10/22 05:05:44;;;;;;;14.57;3.42;;;7.70;98.60;;;5.47;100.00;100385.94;5070445;28;20071;-85
2021/10/22 05:08:12;;;;;;;21.05;4.00;;;7.70;99.00;;;5.56;100.00;100385.00;5070262;28;20072;-85
2021/10/22 05:10:39;;;;;;;14.13;3.35;;;7.80;99.10;;;5.62;100.00;100388.94;5070665;28;20048;-85
2021/10/22 05:13:06;;;;;;;19.23;3.50;;;7.80;98.80;;;5.71;100.00;100387.97;5147240;22;20457;-85
2021/10/22 05:15:34;;;;;;;17.67;3.85;;;7.80;98.90;;;5.67;100.00;100397.41;5050630;28;20132;-86
2021/10/22 05:18:01;;;;;;;12.35;2.85;;;7.90;99.00;;;5.76;100.00;100401.88;5050234;28;20124;-85
2021/10/22 05:20:30;;;;;;;13.35;2.80;;;7.90;98.90;;;5.85;100.00;100409.03;5050515;28;20131;-86
2021/10/22 05:22:57;;;;;;;20.42;3.65;;;7.90;99.00;;;5.92;100.00;100400.31;5032277;28;20040;-85
2021/10/22 05:25:25;;;;;;;15.10;3.10;;;8.00;99.00;;;5.93;100.00;100407.41;5050139;28;20083;-85
2021/10/22 05:27:52;;;;;;;14.10;2.88;;;8.00;99.00;;;5.96;100.00;100396.31;5049700;28;20037;-86
2021/10/22 05:30:19;;;;;;;16.67;3.92;;;8.10;99.00;;;6.03;100.00;100402.78;5050187;28;20049;-85
2021/10/22 05:32:47;;;;;;;13.32;3.10;;;8.10;98.80;;;6.08;100.00;100400.47;5049709;28;20503;-85
2021/10/22 05:35:14;;;;;;;11.38;2.67;;;8.10;98.70;;;6.00;100.00;100401.25;5032014;28;20766;-85
2021/10/22 05:37:43;;;;;;;20.42;3.35;;;8.10;98.50;;;5.94;100.00;100399.16;5049584;28;20041;-85
2021/10/22 05:40:11;;;;;;;15.30;2.92;;;8.10;98.00;;;5.83;100.00;100397.53;5046764;28;20098;-85
2021/10/22 05:42:38;;;;;;;14.18;2.58;;;8.10;98.20;;;5.81;100.00;100394.16;5031717;28;20152;-85
2021/10/22 05:45:07;;;;;;;19.88;3.47;;;8.10;98.10;;;5.74;100.00;100387.69;5049634;28;20140;-85
2021/10/22 05:47:35;;;;;;;17.08;3.40;;;8.10;97.80;;;5.70;100.00;100386.31;5049556;28;20485;-85
2021/10/22 05:50:05;;;;;;;14.70;2.80;;;8.10;97.60;;;5.67;100.00;100386.59;5031912;28;20582;-85
2021/10/22 05:52:32;;;;;;;19.55;3.03;;;8.10;97.30;;;5.71;100.00;100390.69;5049921;28;20568;-86
2021/10/22 05:55:02;;;;;;;13.02;2.85;;;8.10;97.60;;;5.76;100.00;100382.97;5049784;28;20079;-86
2021/10/22 05:57:29;;;;;;;10.27;2.83;;;8.10;97.80;;;5.74;100.00;100381.44;5049308;28;20070;-85
2021/10/22 05:59:56;;;;;;;11.93;2.60;;;8.10;97.90;;;5.69;100.00;100363.00;5049654;28;20047;-86
2021/10/22 06:02:24;;;;;;;14.15;2.65;;;8.10;97.50;;;5.72;100.00;100370.78;5049499;28;20409;-85
2021/10/22 06:04:51;;;;;;;9.93;2.42;;;8.10;97.20;;;5.71;100.00;100366.38;5049478;28;20119;-85
2021/10/22 06:07:18;;;;;;;20.70;3.15;;;8.10;97.50;;;5.71;100.00;100360.97;5049366;28;20068;-85
2021/10/22 06:09:46;;;;;;;12.32;2.80;;;8.00;97.50;;;5.71;100.00;100371.78;5049189;28;20052;-86
2021/10/22 06:12:14;;;;;;;11.10;3.28;;;8.10;97.50;;;5.65;100.00;100369.72;5049001;28;20084;-86
2021/10/22 06:14:42;;;;;;;10.43;2.92;;;8.10;97.40;;;5.63;100.00;100367.16;5049308;28;20456;-86
2021/10/22 06:17:09;;;;;;;17.23;3.63;;;8.00;97.10;;;5.61;100.00;100360.25;5049097;28;20051;-86
2021/10/22 06:19:39;;;;;;;15.38;3.60;;;8.00;97.00;;;5.60;100.00;100359.41;5049007;28;20041;-86
2021/10/22 06:22:11;;;;;;;11.63;3.08;;;8.00;96.90;;;5.60;100.00;100358.56;5049162;28;20049;-86
2021/10/22 06:24:38;;;;;;;14.35;3.00;;;8.00;97.20;;;5.58;100.00;100356.00;5031063;28;20059;-85
2021/10/22 06:27:06;;;;;;;14.85;3.08;;;8.00;97.20;;;5.60;100.00;100362.09;5048908;28;20122;-85
2021/10/22 06:29:35;;;;;;;11.27;2.60;;;8.00;97.00;;;5.62;100.00;100345.75;5048822;28;20080;-86
2021/10/22 06:32:02;;;;;;;14.13;3.10;;;8.00;97.10;;;5.66;100.00;100352.53;5031034;28;20045;-86
2021/10/22 06:34:30;;;;;;;15.85;3.63;;;8.00;97.00;;;5.63;100.00;100347.44;5049004;28;20072;-85
2021/10/22 06:36:57;;;;;;;18.83;3.45;;;8.00;97.00;;;5.61;100.00;100349.44;5049025;28;20069;-85
2021/10/22 06:39:24;;;;;;;11.90;2.72;;;8.00;97.10;;;5.67;100.00;100357.78;5048571;28;20048;-86
2021/10/22 06:41:52;;;;;;;15.05;3.70;;;8.00;97.20;;;5.83;100.00;100348.94;5048736;28;20049;-85
2021/10/22 06:44:23;;;;;;;16.25;3.40;;;8.00;97.30;;;5.95;100.00;100351.38;5030248;28;20052;-85
2021/10/22 06:46:52;;;;;;;16.15;3.10;;;8.00;97.40;;;6.14;100.00;100353.06;5048732;28;20501;-86
2021/10/22 06:49:19;;;;;;;13.10;2.90;;;8.10;97.70;;;6.21;100.00;100354.13;5048371;28;20045;-86
2021/10/22 06:51:46;;;;;;;18.05;3.97;;;8.10;97.50;;;6.26;100.00;100355.31;5048563;28;20049;-85
2021/10/22 06:54:14;;;;;;;15.70;3.47;;;8.20;97.80;;;6.33;100.00;100349.28;5048494;28;20142;-86
2021/10/22 06:56:41;;;;;;;11.52;3.25;;;8.20;97.80;;;6.33;100.00;100344.69;5050952;28;20040;-86
2021/10/22 06:59:08;;;;;;;12.23;2.95;;;8.30;97.80;;;6.39;100.00;100337.81;5048261;28;20056;-86
2021/10/22 07:01:36;;;;;;;11.85;3.22;;;8.30;97.30;;;6.50;100.00;100342.09;5048347;28;20045;-86
2021/10/22 07:04:07;;;;;;;19.35;4.97;;;8.30;97.30;;;6.57;99.99;100349.38;5048441;28;20090;-85
2021/10/22 07:09:19;;;;;;;13.75;3.38;;;8.40;97.60;;;6.68;99.68;100347.38;5048425;28;20048;-83
2021/10/22 07:11:46;;;;;;;13.75;3.83;;;8.50;97.30;;;6.70;99.65;100361.59;5048637;28;20166;-83
2021/10/22 07:14:15;;;;;;;14.57;3.00;;;8.50;97.40;;;6.74;98.78;100358.41;5048484;28;20129;-83
2021/10/22 07:16:43;;;;;;;15.18;3.17;;;8.50;96.70;;;6.82;98.83;100365.72;5048476;28;20045;-83
2021/10/22 07:19:11;;;;;;;15.65;3.70;;;8.60;96.70;;;6.81;99.05;100366.69;5048114;28;20513;-82
2021/10/22 07:21:43;;;;;;;13.90;2.90;;;8.60;96.70;;;6.83;99.13;100364.69;5048418;28;20064;-83
2021/10/22 07:24:18;;;;;;;16.63;2.95;;;8.60;96.80;;;6.91;99.20;100372.84;5048318;28;20162;-83
2021/10/22 07:26:45;;;;;;;14.77;3.13;;;8.70;96.90;;;6.94;99.38;100386.03;5048286;28;20052;-83
2021/10/22 07:29:12;;;;;;;9.05;2.75;;;8.70;96.80;;;6.95;98.29;100370.63;5029909;28;20182;-83
2021/10/22 07:31:40;;;;;;;12.75;2.90;;;8.80;96.80;;;6.96;98.71;100375.88;5048150;28;20040;-83
2021/10/22 07:34:09;;;;;;;14.57;3.17;;;8.80;96.50;;;7.08;98.72;100386.41;5048262;28;20120;-83
2021/10/22 07:36:37;;;;;;;15.25;2.97;;;8.90;96.60;;;7.05;98.46;100388.41;5048378;28;20052;-83
2021/10/22 07:39:05;;;;;;;20.45;2.50;;;8.90;96.50;;;7.09;98.12;100390.81;5048007;28;20053;-82
2021/10/22 07:41:32;;;;;;;11.40;2.97;;;8.90;96.30;;;7.17;98.25;100378.13;5048353;28;20048;-83
2021/10/22 07:44:00;;;;;;;10.32;2.53;;;8.90;96.50;;;7.29;98.11;100384.09;5045005;28;20045;-83
2021/10/22 07:46:27;;;;;;;11.00;2.65;;;9.00;96.50;;;7.29;97.68;100381.38;5048250;28;20055;-83
2021/10/22 07:48:54;;;;;;;12.32;3.17;;;9.10;96.30;;;7.28;97.31;100381.56;5030013;28;20508;-83
2021/10/22 07:51:22;;;;;;;11.70;2.78;;;9.10;96.10;;;7.33;98.17;100392.69;5048311;28;20452;-83
2021/10/22 07:53:51;;;;;;;21.20;3.13;;;9.10;96.20;;;7.41;97.92;100388.16;5048048;28;20048;-83
2021/10/22 07:56:18;;;;;;;15.93;3.83;;;9.20;96.30;;;7.52;98.58;100392.41;5051118;28;20041;-83
2021/10/22 07:58:49;;;;;;;8.43;2.53;;;9.30;96.40;;;7.58;97.06;100394.44;5051980;28;20079;-83
2021/10/22 08:01:17;;;;;;;13.00;2.67;;;9.30;95.80;;;7.62;97.69;100405.78;5052009;28;20049;-83
2021/10/22 08:03:45;;;;;;;12.40;2.72;;;9.30;95.90;;;7.64;96.57;100403.75;5051988;28;20045;-83
2021/10/22 08:06:14;;;;;;;10.50;2.60;;;9.40;95.80;;;7.76;96.68;100405.09;5051969;28;20127;-83
2021/10/22 08:08:41;;;;;;;13.07;2.70;;;9.40;95.90;;;7.77;96.79;100404.09;5051454;28;20382;-83
2021/10/22 08:11:10;;;;;;;10.25;2.65;;;9.40;95.90;;;7.79;96.41;100399.34;5051772;28;20504;-82
2021/10/22 08:13:37;;;;;;;12.35;3.08;;;9.50;96.00;;;7.95;96.62;100398.50;5051671;28;20053;-83
2021/10/22 08:16:05;;;;;;;10.27;2.47;;;9.50;96.10;;;8.06;96.55;100394.59;5051664;28;20143;-83
2021/10/22 08:18:33;;;;;;;14.10;2.90;;;9.60;96.00;;;8.20;95.44;100399.31;5033317;28;20478;-83
2021/10/22 08:21:02;;;;;;;16.90;4.03;;;9.60;95.60;;;8.23;95.77;100409.81;5033564;28;20193;-83
2021/10/22 08:23:30;;;;;;;14.10;3.45;;;9.70;96.00;;;8.21;95.44;100402.88;5051556;28;20044;-83
2021/10/22 08:25:57;;;;;;;13.63;2.80;;;9.70;95.80;;;8.19;95.00;100396.78;5051674;28;20063;-83
2021/10/22 08:28:26;;;;;;;15.68;3.47;;;9.70;95.10;;;8.18;95.02;100411.34;5051136;28;20867;-83
2021/10/22 08:30:56;;;;;;;19.73;3.38;;;9.70;94.90;;;8.14;95.13;100405.41;5051477;28;20072;-83
2021/10/22 08:33:25;;;;;;;13.15;2.95;;;9.80;95.10;;;8.18;95.68;100423.03;5051273;28;20122;-83
2021/10/22 08:35:53;;;;;;;13.85;2.65;;;9.80;95.10;;;8.17;96.11;100421.34;5033472;28;20041;-83
2021/10/22 08:38:20;;;;;;;10.25;2.83;;;9.90;95.40;;;8.17;96.28;100424.06;5050897;28;20068;-83
2021/10/22 08:40:48;;;;;;;14.40;2.45;;;9.90;95.60;;;8.24;96.16;100426.91;5051211;28;20056;-83
2021/10/22 08:43:15;;;;;;;17.15;2.92;;;9.90;95.30;;;8.29;96.85;100421.84;5051110;28;20045;-83
2021/10/22 08:45:45;;;;;;;17.00;2.90;;;10.00;95.40;;;8.36;96.24;100441.00;5051110;28;20073;-83
2021/10/22 08:48:13;;;;;;;16.05;2.90;;;10.00;95.30;;;8.38;95.89;100431.66;5050729;28;20305;-83
2021/10/22 08:50:41;;;;;;;14.65;3.33;;;10.00;94.80;;;8.49;96.17;100425.06;5053532;28;20573;-83
2021/10/22 08:53:08;;;;;;;14.50;3.38;;;10.10;95.50;;;8.43;95.56;100433.88;5050913;28;20040;-83
2021/10/22 08:55:36;;;;;;;14.63;2.80;;;10.10;95.20;;;8.48;95.13;100436.09;5050986;28;20121;-83
2021/10/22 08:58:03;;;;;;;15.13;2.70;;;10.10;95.10;;;8.54;95.44;100421.81;5050636;28;20155;-83
2021/10/22 09:00:30;;;;;;;15.02;3.10;;;10.10;94.80;;;8.59;95.60;100431.13;5050952;28;20099;-83
2021/10/22 09:03:10;;;;;;;11.00;2.80;;;10.20;95.00;;;8.65;95.15;100428.75;5050662;28;20546;-83
2021/10/22 09:05:39;;;;;;;13.20;2.67;;;10.20;95.00;;;8.64;95.24;100436.03;5050512;28;20102;-83
2021/10/22 09:08:06;;;;;;;13.45;3.10;;;10.30;95.00;;;8.64;94.10;100438.72;5050348;28;20041;-83
2021/10/22 09:10:37;;;;;;;12.05;2.50;;;10.20;94.40;;;8.67;95.78;100432.13;5050448;28;20497;-83
2021/10/22 09:13:07;;;;;;;11.57;2.60;;;10.30;95.10;;;8.83;95.30;100436.66;5050458;28;20131;-83
2021/10/22 09:15:38;;;;;;;9.60;2.33;;;10.30;95.20;;;8.96;94.94;100437.78;5050635;28;20045;-83
2021/10/22 09:18:17;;;;;;;;;;;10.40;95.40;;;9.08;94.38;100426.53;5050935;28;20049;-83
2021/10/22 09:20:53;;;;;;;15.48;2.50;;;10.40;95.00;;;9.15;94.23;100431.06;5050519;28;19920;-83
2021/10/22 09:23:26;;;;;;;12.75;2.50;;;10.50;95.20;;;9.22;93.85;100433.09;5050281;28;20052;-83
2021/10/22 09:26:13;;;;;;;19.50;2.35;;;10.50;95.00;;;9.42;93.50;100426.16;5032361;28;20057;-83
2021/10/22 09:28:40;;;;;;;15.63;2.35;;;10.60;95.10;;;9.56;92.36;100430.00;5049928;28;20045;-83
2021/10/22 09:31:11;;;;;;;12.98;2.67;;;10.70;94.70;;;9.61;92.00;100424.84;5050255;28;20102;-83
2021/10/22 09:33:52;;;;;;;12.32;1.92;;;10.70;94.30;;;9.62;91.39;100415.69;5032124;28;20500;-83
2021/10/22 09:36:33;;;;;;;16.33;2.67;;;10.80;94.50;;;9.66;91.61;100427.88;5045601;28;20420;-83
2021/10/22 09:39:08;;;;;;;13.95;3.33;;;10.90;94.20;;;9.73;92.08;100423.44;5050198;28;20053;-83
2021/10/22 09:41:37;;;;;;;9.07;2.60;;;10.90;94.60;;;9.78;92.09;100425.59;5031897;28;20078;-83
2021/10/22 09:44:22;;;;;;;9.55;2.10;;;10.90;94.60;;;9.69;91.18;100427.53;5050046;28;20044;-83
2021/10/22 09:46:51;;;;;;;12.40;2.42;;;11.00;94.30;;;9.53;91.41;100416.78;5049831;28;20497;-83
2021/10/22 09:49:29;;;;;;;18.17;2.72;;;11.00;94.10;;;9.35;93.29;100415.19;5049526;28;20041;-83
2021/10/22 09:51:56;;;;;;;10.70;2.40;;;11.00;93.70;;;9.31;93.41;100432.88;5049893;28;20055;-83
2021/10/22 09:54:30;;;;;;;12.13;2.45;;;11.00;93.70;;;9.29;92.96;100443.06;5049757;28;20095;-83
2021/10/22 09:56:59;;;;;;;11.93;2.05;;;11.00;92.90;;;9.37;92.95;100432.16;5050168;28;20866;-83
2021/10/22 09:59:27;;;;;;;13.48;2.63;;;11.10;93.30;;;9.54;92.85;100440.22;5049317;28;20124;-83
2021/10/22 10:01:56;;;;;;;15.35;3.20;;;11.10;93.70;;;9.54;93.03;100443.75;5049736;28;20048;-83
2021/10/22 10:04:27;;;;;;;13.18;2.38;;;11.10;93.60;;;9.52;92.54;100429.50;5031475;28;20483;-85
2021/10/22 10:06:58;;;;;;;12.77;2.10;;;11.10;93.30;;;9.70;92.35;100429.22;5049645;28;20072;-84
2021/10/22 10:09:27;;;;;;;13.35;2.85;;;11.20;93.60;;;9.67;90.89;100420.56;5049425;28;20049;-83
2021/10/22 10:11:56;;;;;;;12.70;2.20;;;11.10;93.00;;;9.59;91.50;100437.78;5049231;28;20064;-83
2021/10/22 10:14:26;;;;;;;9.57;2.42;;;11.20;93.10;;;9.54;91.94;100429.34;5049897;28;20076;-83
2021/10/22 10:16:54;;;;;;;8.68;1.98;;;11.20;93.10;;;9.50;92.40;100437.00;5047862;28;20040;-82
2021/10/22 10:19:25;;;;;;;11.77;2.15;;;11.20;93.10;;;9.48;92.97;100432.75;5041581;28;20072;-83
2021/10/22 10:22:07;;;;;;;11.77;2.22;;;11.20;93.10;;;9.57;93.21;100439.81;5032691;28;20051;-83
2021/10/22 10:24:37;;;;;;;10.02;2.08;;;11.30;93.40;;;9.61;92.68;100432.16;5035736;28;20506;-83
2021/10/22 10:27:08;;;;;;;16.08;2.97;;;11.30;92.90;;;9.77;92.97;100441.06;5031068;28;20046;-83